Time;durP1;ratioP1;P1;durP2;ratioP2;P2;SDS_P1;SDS_P2;PMS_P1;PMS_P2;Temp;Humidity;BMP_temperature;BMP_pressure;BME280_temperature;BME280_humidity;BME280_pressure;Samples;Min_cycle;Max_cycle;Signal;HPM_P1;HPM_P2
2022/05/23 00:00:28;;;;;;;11.90;2.40;;;13.30;99.90;;;;;;5133456;28;20050;-80
2022/05/23 00:02:54;;;;;;;5.70;1.30;;;13.30;99.90;;;;;;5133770;27;20387;-80
2022/05/23 00:05:20;;;;;;;5.78;1.15;;;13.30;99.90;;;;;;5127200;27;20386;-80
2022/05/23 00:07:48;;;;;;;8.85;1.95;;;13.30;99.90;;;;;;5142076;27;20047;-79
2022/05/23 00:10:17;;;;;;;3.83;1.40;;;13.20;99.90;;;;;;5134063;28;20043;-80
2022/05/23 00:12:43;;;;;;;4.38;1.50;;;13.20;99.90;;;;;;5098044;28;20047;-80
2022/05/23 00:15:12;;;;;;;4.28;1.50;;;13.10;99.90;;;;;;5133318;28;20187;-80
2022/05/23 00:17:37;;;;;;;7.47;1.48;;;13.10;99.90;;;;;;5133563;27;20062;-80
2022/05/23 00:20:05;;;;;;;6.85;1.45;;;13.10;99.90;;;;;;5126576;27;20442;-80
2022/05/23 00:22:31;;;;;;;5.78;1.80;;;13.00;99.90;;;;;;5127089;28;20474;-81
2022/05/23 00:24:58;;;;;;;6.28;1.63;;;13.00;99.90;;;;;;5100748;27;20046;-80
2022/05/23 00:27:24;;;;;;;9.52;1.73;;;13.00;99.90;;;;;;5118642;27;20049;-80
2022/05/23 00:29:51;;;;;;;4.32;1.45;;;13.00;99.90;;;;;;5136817;27;20058;-80
2022/05/23 00:35:20;;;;;;;4.55;1.80;;;12.90;99.90;;;;;;5131199;27;20114;-80
2022/05/23 00:37:48;;;;;;;5.77;1.90;;;12.90;99.90;;;;;;5137874;27;20130;-79
2022/05/23 00:40:38;;;;;;;3.10;1.40;;;12.90;99.90;;;;;;5119212;27;20042;-80
2022/05/23 00:43:25;;;;;;;3.00;1.33;;;12.90;99.90;;;;;;5156869;27;20050;-80
2022/05/23 00:46:00;;;;;;;4.07;1.55;;;12.80;99.90;;;;;;5119657;27;20050;-80
2022/05/23 00:48:29;;;;;;;4.80;1.40;;;12.80;99.90;;;;;;5120361;27;20490;-80
2022/05/23 00:51:07;;;;;;;6.20;1.40;;;12.80;99.90;;;;;;5136329;27;20050;-80
2022/05/23 00:53:40;;;;;;;4.78;1.65;;;12.80;99.90;;;;;;5137295;27;20040;-80
2022/05/23 00:56:12;;;;;;;3.25;1.45;;;12.80;99.90;;;;;;5136004;27;20082;-80
2022/05/23 00:58:45;;;;;;;5.00;1.27;;;12.80;99.90;;;;;;5137002;27;20391;-80
2022/05/23 01:01:15;;;;;;;2.53;1.20;;;12.70;99.90;;;;;;5130708;27;20127;-80
2022/05/23 01:03:41;;;;;;;4.25;1.30;;;12.70;99.90;;;;;;5117666;27;20322;-80
2022/05/23 01:06:07;;;;;;;5.32;1.80;;;12.70;99.90;;;;;;5136560;27;20035;-80
2022/05/23 01:08:35;;;;;;;3.75;1.45;;;12.70;99.90;;;;;;5121800;27;20496;-80
2022/05/23 01:11:03;;;;;;;5.88;1.23;;;12.70;99.90;;;;;;5144564;27;20046;-80
2022/05/23 01:13:29;;;;;;;2.90;1.45;;;12.70;99.90;;;;;;5136691;27;20501;-79
2022/05/23 01:15:55;;;;;;;4.20;1.30;;;12.70;99.90;;;;;;5136086;27;20043;-79
2022/05/23 01:18:21;;;;;;;4.18;1.08;;;12.70;99.90;;;;;;5117382;27;20054;-79
2022/05/23 01:20:53;;;;;;;5.15;1.45;;;12.70;99.90;;;;;;5123940;27;20050;-80
2022/05/23 01:23:40;;;;;;;2.63;1.08;;;12.70;99.90;;;;;;5134834;27;20109;-79
2022/05/23 01:26:07;;;;;;;5.80;1.30;;;12.70;99.90;;;;;;5135215;27;20126;-80
2022/05/23 01:28:35;;;;;;;3.28;1.30;;;12.70;99.90;;;;;;5148589;27;20091;-80
2022/05/23 01:31:01;;;;;;;5.35;1.25;;;12.70;99.90;;;;;;5116996;27;20046;-80
2022/05/23 01:33:26;;;;;;;6.13;1.60;;;12.70;99.90;;;;;;5138610;27;20056;-79
2022/05/23 01:35:52;;;;;;;8.50;1.58;;;12.70;99.90;;;;;;5117552;27;20133;-80
2022/05/23 01:38:18;;;;;;;6.43;1.30;;;12.80;99.90;;;;;;5135542;27;20039;-80
2022/05/23 01:40:43;;;;;;;5.45;1.45;;;12.80;99.90;;;;;;5144479;27;20070;-79
2022/05/23 01:43:09;;;;;;;4.50;1.40;;;12.80;99.90;;;;;;5138221;27;20111;-80
2022/05/23 01:45:37;;;;;;;5.88;1.50;;;12.90;99.90;;;;;;5139229;27;20038;-79
2022/05/23 01:48:04;;;;;;;7.28;1.42;;;12.80;99.90;;;;;;5136018;27;20043;-79
2022/05/23 01:50:30;;;;;;;7.38;1.50;;;12.90;99.90;;;;;;5116979;27;20043;-80
2022/05/23 01:52:58;;;;;;;6.35;2.33;;;12.90;99.90;;;;;;5135149;27;20058;-80
2022/05/23 01:55:23;;;;;;;6.18;1.60;;;12.90;99.90;;;;;;5124691;27;20027;-80
2022/05/23 01:57:49;;;;;;;7.50;2.05;;;12.90;99.90;;;;;;5138303;27;20378;-80
2022/05/23 02:03:00;;;;;;;4.25;1.23;;;13.00;99.90;;;;;;5115323;28;20066;-79
2022/05/23 02:05:27;;;;;;;4.63;1.45;;;13.00;99.90;;;;;;5092435;28;20044;-80
2022/05/23 02:07:54;;;;;;;7.28;1.70;;;13.10;99.90;;;;;;5089319;28;20039;-80
2022/05/23 02:10:20;;;;;;;2.95;1.42;;;13.00;99.90;;;;;;5102718;28;20130;-78
2022/05/23 02:12:47;;;;;;;6.82;2.13;;;13.00;99.90;;;;;;5093269;28;20579;-80
2022/05/23 02:15:13;;;;;;;6.55;1.40;;;13.10;99.90;;;;;;5092227;28;20048;-80
2022/05/23 02:17:39;;;;;;;3.45;1.38;;;13.10;99.90;;;;;;5093610;28;20382;-80
2022/05/23 02:20:06;;;;;;;4.40;1.23;;;13.10;99.90;;;;;;5093773;28;20036;-80
2022/05/23 02:22:33;;;;;;;3.65;1.75;;;13.10;99.90;;;;;;5093595;28;20123;-80
2022/05/23 02:24:59;;;;;;;5.68;1.95;;;13.10;99.90;;;;;;5093895;28;20036;-80
2022/05/23 02:27:25;;;;;;;4.85;1.80;;;13.10;99.90;;;;;;5093671;28;20132;-80
2022/05/23 02:29:51;;;;;;;6.68;1.92;;;13.10;99.90;;;;;;5093675;28;20124;-80
2022/05/23 02:32:16;;;;;;;6.05;2.00;;;13.10;99.90;;;;;;5094442;28;20051;-80
2022/05/23 02:34:42;;;;;;;7.45;2.65;;;13.10;99.90;;;;;;5091990;28;20117;-80
2022/05/23 02:37:09;;;;;;;5.13;1.70;;;13.10;99.90;;;;;;5099998;28;20055;-80
2022/05/23 02:39:35;;;;;;;5.07;1.98;;;13.10;99.90;;;;;;5099250;28;20051;-80
2022/05/23 02:42:01;;;;;;;6.00;1.95;;;13.10;99.90;;;;;;5093181;28;20040;-80
2022/05/23 02:44:27;;;;;;;3.30;1.80;;;13.00;99.90;;;;;;5093624;28;20075;-80
2022/05/23 02:46:53;;;;;;;4.57;1.30;;;13.00;99.90;;;;;;5093817;28;20119;-78
2022/05/23 02:49:20;;;;;;;3.63;1.33;;;12.90;99.90;;;;;;5090894;28;20108;-80
2022/05/23 02:51:46;;;;;;;6.15;1.52;;;12.80;99.90;;;;;;5093016;28;20036;-80
2022/05/23 02:54:12;;;;;;;4.38;1.70;;;12.80;99.90;;;;;;5111103;28;20048;-80
2022/05/23 02:56:38;;;;;;;3.75;1.52;;;12.80;99.90;;;;;;5112067;28;20049;-80
2022/05/23 02:59:04;;;;;;;6.25;1.70;;;12.70;99.90;;;;;;5116378;27;20050;-80
2022/05/23 03:01:30;;;;;;;5.38;1.50;;;12.70;99.90;;;;;;5134843;27;20072;-80
2022/05/23 03:03:56;;;;;;;5.78;1.65;;;12.60;99.90;;;;;;5146631;27;20547;-80
2022/05/23 03:06:22;;;;;;;4.32;2.13;;;12.60;99.90;;;;;;5137135;27;20054;-80
2022/05/23 03:08:48;;;;;;;4.10;1.50;;;12.50;99.90;;;;;;5121754;27;20042;-80
2022/05/23 03:11:14;;;;;;;4.47;1.63;;;12.50;99.90;;;;;;5115261;27;20050;-80
2022/05/23 03:13:40;;;;;;;6.20;1.92;;;12.40;99.90;;;;;;5116167;28;20118;-80
2022/05/23 03:16:11;;;;;;;2.40;1.33;;;12.30;99.90;;;;;;5125525;27;20091;-80
2022/05/23 03:18:37;;;;;;;3.80;1.75;;;12.30;99.90;;;;;;5123276;27;20043;-80
2022/05/23 03:21:07;;;;;;;8.05;1.60;;;12.30;99.90;;;;;;5115626;28;20554;-80
2022/05/23 03:29:05;;;;;;;6.18;1.70;;;12.20;99.90;;;;;;5116163;28;19972;-80
2022/05/23 03:31:31;;;;;;;6.30;2.47;;;12.20;99.90;;;;;;5114658;28;20083;-80
2022/05/23 03:33:57;;;;;;;6.72;2.28;;;12.30;99.90;;;;;;5134564;28;20039;-79
2022/05/23 03:36:23;;;;;;;3.35;1.67;;;12.30;99.90;;;;;;5133648;27;20039;-80
2022/05/23 03:38:49;;;;;;;3.50;2.00;;;12.30;99.90;;;;;;5115138;28;20082;-79
2022/05/23 03:41:15;;;;;;;4.80;1.75;;;12.30;99.90;;;;;;5115558;27;20039;-80
2022/05/23 03:43:41;;;;;;;5.72;1.90;;;12.20;99.90;;;;;;5115896;28;20569;-80
2022/05/23 03:46:08;;;;;;;3.67;1.88;;;12.30;99.90;;;;;;5135794;27;20034;-80
2022/05/23 03:48:34;;;;;;;3.00;1.70;;;12.30;99.90;;;;;;5134345;27;20070;-80
2022/05/23 03:51:02;;;;;;;3.65;1.50;;;12.30;99.90;;;;;;5144526;27;20031;-80
2022/05/23 03:53:28;;;;;;;4.55;2.42;;;12.30;99.90;;;;;;5133286;28;20043;-80
2022/05/23 03:55:55;;;;;;;4.53;2.05;;;12.30;99.90;;;;;;5134092;28;20482;-80
2022/05/23 03:58:21;;;;;;;24.55;2.35;;;12.30;99.90;;;;;;5115820;27;20059;-80
2022/05/23 04:00:49;;;;;;;5.32;1.80;;;12.30;99.90;;;;;;5119233;27;20425;-80
2022/05/23 04:03:19;;;;;;;5.82;2.08;;;12.30;99.90;;;;;;5137186;27;20486;-80
2022/05/23 04:05:47;;;;;;;7.28;2.88;;;12.30;99.90;;;;;;5126708;27;20045;-80
2022/05/23 04:08:12;;;;;;;8.25;2.42;;;12.20;99.90;;;;;;5102764;27;20035;-80
2022/05/23 04:10:40;;;;;;;4.53;2.10;;;12.30;99.90;;;;;;5119048;27;20122;-80
2022/05/23 04:13:06;;;;;;;6.50;2.25;;;12.30;99.90;;;;;;5137193;27;20043;-80
2022/05/23 04:15:32;;;;;;;6.57;2.00;;;12.20;99.90;;;;;;5118973;27;20043;-80
2022/05/23 04:17:58;;;;;;;4.60;2.15;;;12.20;99.90;;;;;;5119589;27;20046;-80
2022/05/23 04:20:24;;;;;;;7.03;2.05;;;12.30;99.90;;;;;;5143190;27;20039;-79
2022/05/23 04:22:50;;;;;;;7.20;2.00;;;12.20;99.90;;;;;;5137808;27;20047;-80
2022/05/23 04:25:16;;;;;;;10.98;2.45;;;12.30;99.90;;;;;;5119110;27;20116;-80
2022/05/23 04:27:42;;;;;;;4.70;2.10;;;12.30;99.90;;;;;;5118456;27;20390;-80
2022/05/23 04:30:10;;;;;;;6.22;2.70;;;12.30;99.90;;;;;;5137147;27;20081;-80
2022/05/23 04:35:22;;;;;;;4.05;2.45;;;12.50;99.90;;;;;;5117859;27;20050;-80
2022/05/23 04:37:50;;;;;;;4.05;2.40;;;12.50;99.90;;;;;;5102370;27;20051;-80
2022/05/23 04:40:23;;;;;;;6.90;2.33;;;12.60;99.90;;;;;;5115944;27;20047;-80
2022/05/23 04:42:49;;;;;;;6.85;2.47;;;12.70;99.90;;;;;;5118389;27;20398;-80
2022/05/23 04:45:15;;;;;;;8.18;3.55;;;12.70;99.90;;;;;;5136796;27;20042;-80
2022/05/23 04:50:26;;;;;;;4.75;2.38;;;12.80;99.90;;;;;;5118446;27;20146;-80
2022/05/23 04:52:53;;;;;;;6.13;2.67;;;12.90;99.90;;;;;;5137044;27;20035;-80
2022/05/23 04:55:19;;;;;;;4.80;2.45;;;12.90;99.90;;;;;;5100459;27;20045;-80
2022/05/23 04:57:46;;;;;;;6.22;2.00;;;13.00;99.90;;;;;;5105027;27;20043;-79
2022/05/23 05:00:17;;;;;;;4.10;2.30;;;13.10;99.90;;;;;;5134142;27;20473;-80
2022/05/23 05:02:43;;;;;;;6.50;2.80;;;13.10;99.90;;;;;;5135849;27;20486;-80
2022/05/23 05:05:09;;;;;;;7.32;2.58;;;13.10;99.90;;;;;;5156170;27;20045;-80
2022/05/23 05:07:35;;;;;;;7.38;2.95;;;13.20;99.90;;;;;;5157697;27;20129;-80
2022/05/23 05:10:01;;;;;;;13.02;2.92;;;13.30;99.90;;;;;;5156143;27;20078;-80
2022/05/23 05:12:27;;;;;;;4.90;2.28;;;13.40;99.90;;;;;;5138319;27;20125;-80
2022/05/23 05:14:52;;;;;;;8.38;3.10;;;13.40;99.90;;;;;;5121793;27;20043;-80
2022/05/23 05:17:18;;;;;;;5.43;2.50;;;13.40;99.90;;;;;;5109118;27;20054;-80
2022/05/23 05:19:44;;;;;;;5.32;2.65;;;13.40;99.90;;;;;;5131033;27;20039;-82
2022/05/23 05:22:10;;;;;;;5.03;3.00;;;13.50;99.90;;;;;;5143441;27;20047;-81
2022/05/23 05:24:36;;;;;;;4.85;2.83;;;13.50;99.90;;;;;;5117477;27;20457;-80
2022/05/23 05:27:02;;;;;;;7.25;3.05;;;13.50;99.90;;;;;;5117540;27;20131;-80
2022/05/23 05:29:28;;;;;;;4.25;2.10;;;13.50;99.90;;;;;;5136422;27;20088;-80
2022/05/23 05:32:10;;;;;;;9.38;2.70;;;13.60;99.90;;;;;;5116923;27;20130;-81
2022/05/23 05:34:44;;;;;;;4.95;2.70;;;13.70;99.90;;;;;;5103040;27;20122;-81
2022/05/23 05:37:15;;;;;;;7.50;3.08;;;13.80;99.90;;;;;;5146007;27;20131;-80
2022/05/23 05:39:43;;;;;;;10.40;3.40;;;13.80;99.90;;;;;;5141061;27;20035;-81
2022/05/23 05:42:18;;;;;;;8.40;2.70;;;13.90;99.90;;;;;;5117715;27;20059;-80
2022/05/23 05:44:50;;;;;;;11.68;3.65;;;14.00;99.90;;;;;;5134854;27;20479;-82
2022/05/23 05:47:19;;;;;;;8.82;2.55;;;14.10;99.90;;;;;;5136123;27;20043;-82
2022/05/23 05:49:49;;;;;;;7.00;2.97;;;14.30;99.90;;;;;;5117638;27;20454;-81
2022/05/23 05:52:18;;;;;;;7.53;2.70;;;14.40;99.90;;;;;;5116667;27;20497;-80
2022/05/23 05:54:45;;;;;;;7.03;2.80;;;14.50;99.90;;;;;;5135593;27;20039;-82
2022/05/23 05:57:12;;;;;;;6.22;3.00;;;14.60;99.90;;;;;;5135525;27;20038;-82
2022/05/23 05:59:39;;;;;;;7.70;3.10;;;14.70;99.90;;;;;;5134814;27;20085;-83
2022/05/23 06:02:07;;;;;;;6.72;2.92;;;14.70;99.90;;;;;;5117268;27;20122;-81
2022/05/23 06:04:34;;;;;;;6.50;3.03;;;14.80;99.90;;;;;;5137724;27;20118;-79
2022/05/23 06:12:30;;;;;;;7.38;2.72;;;15.00;99.90;;;;;;5134747;27;19930;-80
2022/05/23 06:14:57;;;;;;;7.40;2.90;;;15.10;99.90;;;;;;5119224;27;20482;-80
2022/05/23 06:17:23;;;;;;;5.63;2.72;;;15.30;99.90;;;;;;5117155;27;20039;-82
2022/05/23 06:19:50;;;;;;;5.65;2.47;;;15.40;99.90;;;;;;5119963;27;20394;-80
2022/05/23 06:22:19;;;;;;;7.50;2.70;;;15.50;99.90;;;;;;5131194;27;20134;-80
2022/05/23 06:24:45;;;;;;;10.23;2.80;;;15.60;99.90;;;;;;5131210;27;20085;-81
2022/05/23 06:27:11;;;;;;;6.40;3.15;;;15.70;99.90;;;;;;5155033;27;20074;-80
2022/05/23 06:29:38;;;;;;;8.93;3.10;;;15.70;99.90;;;;;;5129605;27;20035;-80
2022/05/23 06:32:05;;;;;;;6.55;3.17;;;15.70;99.90;;;;;;5155710;27;20101;-80
2022/05/23 06:34:31;;;;;;;8.55;2.97;;;15.70;99.90;;;;;;5126859;27;20039;-80
2022/05/23 06:36:57;;;;;;;6.97;2.83;;;15.80;99.90;;;;;;5134217;27;20088;-80
2022/05/23 06:39:23;;;;;;;5.63;3.10;;;15.80;99.90;;;;;;5115012;27;20432;-80
2022/05/23 06:41:49;;;;;;;11.30;3.33;;;15.70;99.90;;;;;;5133246;27;20100;-81
2022/05/23 06:44:15;;;;;;;12.27;3.50;;;15.80;99.90;;;;;;5101554;27;20039;-80
2022/05/23 06:46:41;;;;;;;13.48;3.50;;;15.70;99.90;;;;;;5151344;27;20066;-80
2022/05/23 06:49:08;;;;;;;9.18;3.45;;;15.80;99.90;;;;;;5131428;27;20058;-80
2022/05/23 06:51:34;;;;;;;8.07;3.92;;;15.80;99.90;;;;;;5144334;27;20035;-80
2022/05/23 06:54:00;;;;;;;8.45;2.95;;;15.80;99.90;;;;;;5135488;27;20093;-79
2022/05/23 06:56:28;;;;;;;7.40;3.63;;;15.80;99.90;;;;;;5115347;27;20505;-80
2022/05/23 06:58:54;;;;;;;8.05;2.97;;;15.90;99.90;;;;;;5116733;27;20398;-80
2022/05/23 07:01:21;;;;;;;8.00;3.85;;;15.90;99.90;;;;;;5116956;27;20057;-80
2022/05/23 07:03:47;;;;;;;8.65;3.30;;;16.00;99.90;;;;;;5126608;27;20043;-80
2022/05/23 07:14:26;;;;;;;11.52;3.50;;;16.30;99.90;;;;;;5142795;27;20072;-79
2022/05/23 07:16:53;;;;;;;10.85;4.65;;;16.30;99.90;;;;;;5151434;27;20432;-79
2022/05/23 07:19:19;;;;;;;10.75;3.10;;;16.40;99.90;;;;;;5116017;28;20039;-79
2022/05/23 07:21:45;;;;;;;7.43;3.45;;;16.50;99.90;;;;;;5115616;27;20122;-79
2022/05/23 07:24:11;;;;;;;5.75;3.50;;;16.60;99.90;;;;;;5133298;28;20126;-80
2022/05/23 07:26:37;;;;;;;7.57;3.85;;;16.70;99.90;;;;;;5115204;27;20082;-79
2022/05/23 07:29:04;;;;;;;9.52;3.83;;;16.70;99.90;;;;;;5142889;27;20073;-79
2022/05/23 07:31:30;;;;;;;6.07;3.33;;;16.80;99.90;;;;;;5154070;27;20047;-79
2022/05/23 07:33:55;;;;;;;7.47;2.97;;;16.90;99.90;;;;;;5117161;27;20043;-80
2022/05/23 07:36:21;;;;;;;6.90;4.25;;;17.00;99.90;;;;;;5121392;27;20034;-78
2022/05/23 07:38:47;;;;;;;7.38;3.53;;;17.10;99.90;;;;;;5137653;27;20043;-79
2022/05/23 07:41:14;;;;;;;8.25;3.53;;;17.20;99.90;;;;;;5126337;27;20045;-80
2022/05/23 07:43:41;;;;;;;6.32;3.03;;;17.30;99.90;;;;;;5157295;27;20053;-79
2022/05/23 07:46:13;;;;;;;8.15;3.83;;;17.30;99.90;;;;;;5142522;27;20509;-79
2022/05/23 07:48:49;;;;;;;8.20;3.85;;;17.40;99.90;;;;;;5138452;27;20140;-79
2022/05/23 07:51:17;;;;;;;9.55;4.43;;;17.50;99.90;;;;;;5136862;27;20062;-80
2022/05/23 08:01:58;;;;;;;9.10;3.47;;;17.60;99.90;;;;;;5136672;27;20486;-79
2022/05/23 08:04:24;;;;;;;11.82;3.50;;;17.60;99.90;;;;;;5119732;27;20043;-80
2022/05/23 08:06:50;;;;;;;10.27;3.58;;;17.70;99.90;;;;;;5136670;27;20099;-80
2022/05/23 08:09:17;;;;;;;10.20;3.55;;;17.80;99.90;;;;;;5119611;27;20122;-79
2022/05/23 08:11:46;;;;;;;6.93;3.58;;;18.00;99.90;;;;;;5118859;27;20086;-80
2022/05/23 08:14:13;;;;;;;9.20;3.83;;;18.10;99.90;;;;;;5134553;27;20048;-80
2022/05/23 08:16:39;;;;;;;11.90;4.18;;;18.20;99.90;;;;;;5122422;27;20379;-79
2022/05/23 08:19:06;;;;;;;6.88;3.78;;;18.40;99.90;;;;;;5136806;27;20505;-79
2022/05/23 08:21:33;;;;;;;6.82;3.72;;;18.50;99.90;;;;;;5118558;27;20051;-80
2022/05/23 08:23:59;;;;;;;7.55;4.45;;;18.60;99.90;;;;;;5154887;27;20051;-79
2022/05/23 08:26:25;;;;;;;8.20;3.35;;;18.70;99.90;;;;;;5124482;27;20036;-79
2022/05/23 08:28:52;;;;;;;7.65;4.18;;;18.80;99.90;;;;;;5133268;27;20125;-80
2022/05/23 08:31:18;;;;;;;7.30;4.07;;;18.80;99.90;;;;;;5128302;27;20129;-79
2022/05/23 08:33:44;;;;;;;5.70;3.47;;;18.90;99.90;;;;;;5136655;27;20042;-80
2022/05/23 08:36:12;;;;;;;12.05;4.75;;;18.90;99.90;;;;;;5131200;27;20400;-79
2022/05/23 08:38:38;;;;;;;5.72;3.30;;;19.00;99.90;;;;;;5124562;27;20467;-78
2022/05/23 08:41:15;;;;;;;8.02;3.38;;;19.10;99.90;;;;;;5136087;27;20043;-79
2022/05/23 08:44:06;;;;;;;9.85;3.60;;;19.30;99.90;;;;;;5101890;27;20401;-80
2022/05/23 08:46:32;;;;;;;7.40;3.03;;;19.50;99.90;;;;;;5136498;27;20046;-80
2022/05/23 08:49:18;;;;;;;6.88;3.58;;;19.60;99.90;;;;;;5136055;27;20054;-80
2022/05/23 08:51:56;;;;;;;7.88;3.70;;;19.70;99.90;;;;;;5136563;27;20043;-80
2022/05/23 08:54:31;;;;;;;6.28;3.50;;;19.80;99.90;;;;;;5103985;27;20481;-80
2022/05/23 08:57:01;;;;;;;8.60;3.85;;;19.90;99.90;;;;;;5120966;27;20051;-82
2022/05/23 08:59:43;;;;;;;7.75;3.80;;;20.00;99.90;;;;;;5118406;27;20059;-80
2022/05/23 09:02:36;;;;;;;9.57;3.75;;;20.10;99.90;;;;;;5115054;27;20051;-79
2022/05/23 09:05:08;;;;;;;9.88;2.85;;;20.10;99.90;;;;;;5118751;27;20047;-79
2022/05/23 09:07:47;;;;;;;7.57;3.22;;;20.20;99.90;;;;;;5136282;27;20519;-80
2022/05/23 09:10:40;;;;;;;8.07;3.85;;;20.30;99.90;;;;;;5128667;27;20046;-80
2022/05/23 09:13:07;;;;;;;8.35;3.72;;;20.40;99.90;;;;;;5125454;27;20054;-80
2022/05/23 09:15:33;;;;;;;7.40;3.55;;;20.40;99.90;;;;;;5134757;27;20071;-79
2022/05/23 09:18:04;;;;;;;7.18;3.47;;;20.50;99.90;;;;;;5118416;27;20053;-82
2022/05/23 09:20:42;;;;;;;13.13;4.45;;;20.60;99.90;;;;;;5117564;27;20052;-80
2022/05/23 09:23:24;;;;;;;11.05;3.85;;;20.70;99.90;;;;;;5117162;27;20047;-79
2022/05/23 09:25:51;;;;;;;6.82;3.00;;;20.80;99.90;;;;;;5100426;27;20043;-81
2022/05/23 09:28:31;;;;;;;9.70;3.58;;;20.80;99.90;;;;;;5138684;27;20051;-81
2022/05/23 09:31:19;;;;;;;8.45;3.53;;;20.90;99.90;;;;;;5135116;27;20042;-80
2022/05/23 09:33:48;;;;;;;7.25;3.40;;;21.00;99.90;;;;;;5136306;27;20039;-81
2022/05/23 09:36:20;;;;;;;6.05;3.13;;;21.10;99.90;;;;;;5134990;27;20031;-80
2022/05/23 09:39:00;;;;;;;7.80;3.10;;;21.10;99.90;;;;;;5136105;27;20410;-81
2022/05/23 09:49:52;;;;;;;6.28;3.30;;;21.30;99.90;;;;;;5135639;27;20049;-80
2022/05/23 09:52:47;;;;;;;6.75;3.50;;;21.40;99.90;;;;;;5083126;27;20051;-82
2022/05/23 09:55:23;;;;;;;8.38;3.60;;;21.60;99.90;;;;;;5117642;27;20053;-80
2022/05/23 09:57:59;;;;;;;5.47;3.00;;;21.70;99.90;;;;;;5151923;27;20046;-80
2022/05/23 10:00:25;;;;;;;6.55;3.45;;;21.80;99.90;;;;;;5140211;27;20059;-81
2022/05/23 10:03:01;;;;;;;5.50;2.67;;;21.90;99.90;;;;;;5135709;27;20035;-80
2022/05/23 10:05:42;;;;;;;6.78;3.20;;;22.00;99.90;;;;;;5134890;27;20087;-80
2022/05/23 10:08:12;;;;;;;6.00;2.72;;;22.10;99.90;;;;;;5136155;27;20141;-81
2022/05/23 10:10:51;;;;;;;9.38;2.70;;;22.30;99.90;;;;;;5123425;27;20047;-81
2022/05/23 10:13:17;;;;;;;4.70;2.15;;;22.50;99.90;;;;;;5134811;27;20043;-81
2022/05/23 10:15:45;;;;;;;7.50;2.55;;;22.60;99.90;;;;;;5135423;27;20042;-81
2022/05/23 10:18:20;;;;;;;4.18;2.00;;;22.70;99.90;;;;;;5135357;27;20047;-81
2022/05/23 10:20:46;;;;;;;7.07;3.78;;;22.80;99.90;;;;;;5099920;27;20057;-81
2022/05/23 10:23:21;;;;;;;8.25;2.70;;;22.90;99.90;;;;;;5135343;27;20051;-81
2022/05/23 10:25:57;;;;;;;3.67;1.73;;;22.90;99.90;;;;;;5151537;27;20074;-81
2022/05/23 10:28:33;;;;;;;5.32;2.25;;;23.00;99.90;;;;;;5155893;27;20046;-82
2022/05/23 10:31:07;;;;;;;7.80;3.63;;;23.10;99.90;;;;;;5155774;27;20043;-81
2022/05/23 10:33:34;;;;;;;10.57;2.65;;;23.10;99.90;;;;;;5136569;27;20494;-82
2022/05/23 10:36:22;;;;;;;5.93;2.85;;;23.10;99.90;;;;;;5155644;27;20043;-81
2022/05/23 10:42:09;;;;;;;7.35;2.47;;;23.10;99.90;;;;;;5140561;27;20166;-81
2022/05/23 10:45:10;;;;;;;8.68;3.70;;;23.10;99.90;;;;;;5116782;27;20051;-81
2022/05/23 10:48:13;;;;;;;4.50;1.95;;;23.20;99.90;;;;;;5097840;27;20140;-81
2022/05/23 10:50:52;;;;;;;4.10;1.60;;;23.20;99.90;;;;;;5115668;27;20055;-79
2022/05/23 10:53:42;;;;;;;2.75;1.50;;;23.20;99.90;;;;;;5120313;27;20050;-80
2022/05/23 10:56:34;;;;;;;7.10;1.80;;;23.30;99.90;;;;;;5145788;27;20483;-80
2022/05/23 10:59:13;;;;;;;5.28;1.52;;;23.30;99.90;;;;;;5133399;27;20051;-81
2022/05/23 11:01:59;;;;;;;5.63;1.42;;;23.40;99.90;;;;;;5133465;27;20035;-80
2022/05/23 11:04:41;;;;;;;4.90;1.27;;;23.50;99.90;;;;;;5134698;27;20061;-81
2022/05/23 11:07:26;;;;;;;3.33;1.40;;;23.60;99.90;;;;;;5136125;27;20158;-81
2022/05/23 11:10:06;;;;;;;5.10;2.13;;;23.60;99.90;;;;;;5153544;27;20047;-80
2022/05/23 11:13:05;;;;;;;6.40;1.70;;;23.50;99.10;;;;;;5133099;27;20099;-84
2022/05/23 11:15:40;;;;;;;4.63;1.38;;;23.60;97.30;;;;;;5138148;27;20090;-81
2022/05/23 11:18:14;;;;;;;5.55;1.42;;;23.60;97.50;;;;;;5127733;27;20054;-82
2022/05/23 11:20:40;;;;;;;3.50;1.40;;;23.60;99.70;;;;;;5136949;27;20119;-81
2022/05/23 11:23:15;;;;;;;5.50;1.70;;;23.70;99.60;;;;;;5152967;27;20047;-81
2022/05/23 11:25:53;;;;;;;6.38;1.75;;;23.80;97.40;;;;;;5136553;27;20489;-81
2022/05/23 11:34:16;;;;;;;4.60;1.50;;;24.00;99.10;;;;;;5134245;28;20512;-82
2022/05/23 11:37:09;;;;;;;5.00;1.58;;;24.00;99.90;;;;;;5134308;27;20457;-80
2022/05/23 11:39:46;;;;;;;4.55;1.67;;;24.00;98.50;;;;;;5134161;28;20122;-81
2022/05/23 11:42:27;;;;;;;3.53;1.42;;;23.90;94.40;;;;;;5142833;27;20035;-82
2022/05/23 11:47:51;;;;;;;4.93;1.33;;;23.80;95.80;;;;;;5150165;27;20058;-83
2022/05/23 11:50:25;;;;;;;4.55;2.05;;;23.80;98.30;;;;;;5152639;27;20065;-81
2022/05/23 11:53:06;;;;;;;3.50;1.88;;;23.80;98.20;;;;;;5152158;27;20046;-81
2022/05/23 11:55:50;;;;;;;6.00;1.67;;;23.80;98.30;;;;;;5133942;28;20130;-81
2022/05/23 11:58:17;;;;;;;6.22;1.80;;;23.80;98.10;;;;;;5132909;27;20146;-81
2022/05/23 12:01:05;;;;;;;4.00;1.48;;;23.80;99.10;;;;;;5133422;27;20100;-81
2022/05/23 12:03:56;;;;;;;7.68;2.05;;;23.70;97.80;;;;;;5153022;27;20047;-81
2022/05/23 12:06:24;;;;;;;7.00;1.70;;;23.60;99.50;;;;;;5132221;27;20043;-81
2022/05/23 12:09:12;;;;;;;2.60;1.33;;;23.60;99.90;;;;;;5144557;27;20118;-82
2022/05/23 12:11:41;;;;;;;7.57;2.03;;;23.50;99.90;;;;;;5151638;27;20082;-81
2022/05/23 12:14:33;;;;;;;4.65;1.80;;;23.50;99.80;;;;;;5154574;27;20042;-82
2022/05/23 12:16:58;;;;;;;3.83;1.80;;;23.50;99.30;;;;;;5134225;27;20098;-81
2022/05/23 12:19:38;;;;;;;6.93;2.00;;;23.50;98.20;;;;;;5135131;27;20043;-81
2022/05/23 12:22:21;;;;;;;4.05;1.77;;;23.50;98.60;;;;;;5139803;27;20047;-82
2022/05/23 12:25:01;;;;;;;6.03;1.60;;;23.50;99.30;;;;;;5144601;27;20039;-82
2022/05/23 12:27:31;;;;;;;4.70;1.35;;;23.50;99.90;;;;;;5155475;27;20117;-80
2022/05/23 12:30:22;;;;;;;8.65;1.50;;;23.50;99.60;;;;;;5155999;27;20046;-82
2022/05/23 12:32:51;;;;;;;6.13;1.92;;;23.50;99.90;;;;;;5148591;27;20057;-81
2022/05/23 12:35:20;;;;;;;3.72;1.58;;;23.40;99.90;;;;;;5156398;27;20035;-82
2022/05/23 12:38:06;;;;;;;5.47;1.60;;;23.40;99.90;;;;;;5139464;27;20103;-81
2022/05/23 12:40:52;;;;;;;6.82;1.63;;;23.40;99.90;;;;;;5144989;27;20043;-82
2022/05/23 12:43:45;;;;;;;3.28;1.60;;;23.40;99.90;;;;;;5118826;27;20051;-81
2022/05/23 12:46:35;;;;;;;4.63;1.60;;;23.40;99.90;;;;;;5150553;27;20046;-81
2022/05/23 12:49:28;;;;;;;5.55;1.60;;;23.30;99.90;;;;;;5145484;27;20113;-81
2022/05/23 12:52:23;;;;;;;4.55;1.58;;;23.30;99.90;;;;;;5156649;27;20042;-82
2022/05/23 12:55:01;;;;;;;7.15;1.63;;;23.20;99.90;;;;;;5080111;27;20064;-81
2022/05/23 12:57:47;;;;;;;5.57;1.42;;;23.10;99.90;;;;;;5140486;27;20045;-81
2022/05/23 13:00:27;;;;;;;6.47;1.90;;;23.00;99.90;;;;;;5138286;27;20069;-81
2022/05/23 13:03:02;;;;;;;5.55;1.60;;;22.90;99.90;;;;;;5155242;27;20154;-81
2022/05/23 13:05:31;;;;;;;;;;;22.70;99.90;;;;;;5137452;27;20061;-81
2022/05/23 13:08:06;;;;;;;10.95;2.22;;;22.60;99.90;;;;;;5142033;27;19919;-81
2022/05/23 13:10:34;;;;;;;5.13;1.60;;;22.40;99.90;;;;;;5138946;27;20045;-81
2022/05/23 13:13:15;;;;;;;4.35;1.90;;;22.30;99.90;;;;;;5154808;27;20038;-81
2022/05/23 13:15:41;;;;;;;4.82;2.13;;;22.20;99.90;;;;;;5156518;27;20095;-81
2022/05/23 13:23:39;;;;;;;5.20;2.47;;;21.90;99.90;;;;;;5156628;27;20051;-81
2022/05/23 13:26:10;;;;;;;5.93;2.15;;;21.70;99.90;;;;;;5155678;27;20047;-81
2022/05/23 13:28:47;;;;;;;3.90;1.70;;;21.60;99.90;;;;;;5156328;27;20407;-81
2022/05/23 13:31:28;;;;;;;4.55;1.80;;;21.50;99.90;;;;;;5136552;27;20043;-81
2022/05/23 13:33:57;;;;;;;5.88;2.00;;;21.50;99.90;;;;;;5141355;27;20047;-82
2022/05/23 13:36:42;;;;;;;6.13;2.40;;;21.50;99.90;;;;;;5135554;27;20403;-81
2022/05/23 13:39:16;;;;;;;6.15;2.00;;;21.50;99.90;;;;;;5136196;27;20043;-81
2022/05/23 13:41:43;;;;;;;2.85;1.83;;;21.60;99.90;;;;;;5135842;27;20043;-81
2022/05/23 13:44:23;;;;;;;5.03;2.00;;;21.70;99.90;;;;;;5136842;27;20051;-81
2022/05/23 13:46:54;;;;;;;7.35;2.55;;;21.80;99.90;;;;;;5135652;27;20035;-81
2022/05/23 13:49:30;;;;;;;3.40;1.73;;;21.90;99.90;;;;;;5136516;27;20038;-81
2022/05/23 13:52:02;;;;;;;5.55;1.70;;;22.00;99.90;;;;;;5128800;27;20046;-81
2022/05/23 13:54:37;;;;;;;5.00;2.10;;;22.10;99.90;;;;;;5154257;27;20512;-81
2022/05/23 13:57:16;;;;;;;4.13;1.58;;;22.10;99.90;;;;;;5134964;27;20490;-81
2022/05/23 13:59:50;;;;;;;5.13;2.25;;;22.20;99.90;;;;;;5135579;27;20055;-81
2022/05/23 14:02:20;;;;;;;;;;;22.20;99.90;;;;;;5136649;27;20623;-81
2022/05/23 14:04:48;;;;;;;4.45;2.05;;;22.20;99.90;;;;;;5143962;27;19919;-81
2022/05/23 14:07:19;;;;;;;6.03;2.28;;;22.20;99.90;;;;;;5117066;27;20042;-81
2022/05/23 14:09:51;;;;;;;6.40;2.40;;;22.20;99.90;;;;;;5156130;27;20093;-82